Weather at Louis Armstrong New Orleans International Airport

Public forecast

Using degrees Fahrenheit for public forecast. Weather courtesy of forecast.io.

Current aviation weather report (METAR) for Louis Armstrong New Orleans International Airport

Retrieved 2021/01/27 02:53 UTC (48 minutes ago):

KMSY 270253Z 11006KT 7SM OVC007 20/18 A2987 RMK AO2 SLP117 T02000178 58002

Aviation forecast (TAF) for Louis Armstrong New Orleans International Airport

Retrieved 2021-01-27 00:36 UTC (3 hours ago):

TAF KMSY 262333Z 2700/2806 11008KT P6SM OVC010 FM270200 14005KT P6SM VCSH SCT008 OVC015 TEMPO 2703/2706 2SM BR OVC004 FM270600 20006KT P6SM VCSH SCT010 OVC015 WS020/22030KT FM271200 24005KT P6SM SCT008 OVC015 FM271900 34015G22KT P6SM FEW035 FM280000 34014KT P6SM FEW250